Kings Canyon, California
Current Conditions -  °F | °C
As of 10:56 PM on Tuesday 21 Oct 2014 (Local Time) from KBIH Reporting Station
Clear Clear  
Wind Chill: 55°   Ceiling: Unl
Heat Index: 55°   Visibility: 10mi
Dew Point: 19°   Wind: 7mph
Humidity: 24%   Direction: 290°WNW
Pressure: 30"   Gusts: NA
Location:  36.7872°N, 118.66°W
Report Text: KBIH 220556Z AUTO 29006KT 10SM CLR 13/M07 A3000 RMK AO2 SLP123 T01281072 10244 20128 53015
Loading
Personal Weather Stations






























Interactive Weather Map
Tropical Storm Tracking
New forecast layout! Learn more

10-Day Weather Forecast

Advertisements
Track Severe Weather on mobile